sensor_id;sensor_type;location;lat;lon;timestamp;temperature;humidity
12119;DHT22;6123;48.864;9.200;2022-07-29T00:01:01;19.80;99.90
12119;DHT22;6123;48.864;9.200;2022-07-29T00:03:27;19.70;99.90
12119;DHT22;6123;48.864;9.200;2022-07-29T00:05:52;19.70;99.90
12119;DHT22;6123;48.864;9.200;2022-07-29T00:08:18;19.70;99.90
12119;DHT22;6123;48.864;9.200;2022-07-29T00:10:55;19.60;99.90
12119;DHT22;6123;48.864;9.200;2022-07-29T00:13:21;19.70;99.90
12119;DHT22;6123;48.864;9.200;2022-07-29T00:15:47;19.60;99.90
12119;DHT22;6123;48.864;9.200;2022-07-29T00:18:15;19.60;99.90
12119;DHT22;6123;48.864;9.200;2022-07-29T00:20:40;19.60;99.90
12119;DHT22;6123;48.864;9.200;2022-07-29T00:23:08;19.50;99.90
12119;DHT22;6123;48.864;9.200;2022-07-29T00:25:36;19.40;99.90
12119;DHT22;6123;48.864;9.200;2022-07-29T00:28:04;19.30;99.90
12119;DHT22;6123;48.864;9.200;2022-07-29T00:30:32;19.30;99.90
12119;DHT22;6123;48.864;9.200;2022-07-29T00:32:58;19.30;99.90
12119;DHT22;6123;48.864;9.200;2022-07-29T00:35:23;19.30;99.90
12119;DHT22;6123;48.864;9.200;2022-07-29T00:38:08;19.30;99.90
12119;DHT22;6123;48.864;9.200;2022-07-29T00:40:35;19.20;99.90
12119;DHT22;6123;48.864;9.200;2022-07-29T00:43:01;19.10;99.90
12119;DHT22;6123;48.864;9.200;2022-07-29T00:45:29;19.30;99.90
12119;DHT22;6123;48.864;9.200;2022-07-29T00:47:55;19.30;99.90
12119;DHT22;6123;48.864;9.200;2022-07-29T00:50:21;19.40;99.90
12119;DHT22;6123;48.864;9.200;2022-07-29T00:52:50;19.20;99.90
12119;DHT22;6123;48.864;9.200;2022-07-29T00:55:17;19.20;99.90
12119;DHT22;6123;48.864;9.200;2022-07-29T00:57:44;19.10;99.90
12119;DHT22;6123;48.864;9.200;2022-07-29T01:00:20;19.10;99.90
12119;DHT22;6123;48.864;9.200;2022-07-29T01:02:46;19.10;99.90
12119;DHT22;6123;48.864;9.200;2022-07-29T01:05:18;19.10;99.90
12119;DHT22;6123;48.864;9.200;2022-07-29T01:07:46;19.00;99.90
12119;DHT22;6123;48.864;9.200;2022-07-29T01:10:13;19.00;99.90
12119;DHT22;6123;48.864;9.200;2022-07-29T01:12:46;18.90;99.90
12119;DHT22;6123;48.864;9.200;2022-07-29T01:15:13;18.80;99.90
12119;DHT22;6123;48.864;9.200;2022-07-29T01:17:50;18.90;99.90
12119;DHT22;6123;48.864;9.200;2022-07-29T01:28:39;18.70;99.90
12119;DHT22;6123;48.864;9.200;2022-07-29T01:31:10;18.70;99.90
12119;DHT22;6123;48.864;9.200;2022-07-29T01:33:43;18.70;99.90
12119;DHT22;6123;48.864;9.200;2022-07-29T01:39:14;18.80;99.90
12119;DHT22;6123;48.864;9.200;2022-07-29T01:42:32;18.60;99.90
12119;DHT22;6123;48.864;9.200;2022-07-29T01:44:59;18.60;99.90
12119;DHT22;6123;48.864;9.200;2022-07-29T01:47:33;18.60;99.90
12119;DHT22;6123;48.864;9.200;2022-07-29T01:50:00;18.60;99.90
12119;DHT22;6123;48.864;9.200;2022-07-29T01:52:49;18.50;99.90
12119;DHT22;6123;48.864;9.200;2022-07-29T01:55:20;18.60;99.90
12119;DHT22;6123;48.864;9.200;2022-07-29T01:57:48;18.60;99.90
12119;DHT22;6123;48.864;9.200;2022-07-29T02:00:15;18.60;99.90
12119;DHT22;6123;48.864;9.200;2022-07-29T02:02:43;18.60;99.90
12119;DHT22;6123;48.864;9.200;2022-07-29T02:05:12;18.60;99.90
12119;DHT22;6123;48.864;9.200;2022-07-29T02:07:39;19.30;99.90
12119;DHT22;6123;48.864;9.200;2022-07-29T02:10:07;18.50;99.90
12119;DHT22;6123;48.864;9.200;2022-07-29T02:12:35;18.50;99.90
12119;DHT22;6123;48.864;9.200;2022-07-29T02:15:03;18.50;99.90
12119;DHT22;6123;48.864;9.200;2022-07-29T02:17:33;18.40;99.90
12119;DHT22;6123;48.864;9.200;2022-07-29T02:20:02;18.40;99.90
12119;DHT22;6123;48.864;9.200;2022-07-29T02:22:33;18.50;99.90
12119;DHT22;6123;48.864;9.200;2022-07-29T02:25:00;18.40;99.90
12119;DHT22;6123;48.864;9.200;2022-07-29T02:27:29;18.40;99.90
12119;DHT22;6123;48.864;9.200;2022-07-29T02:29:58;18.40;99.90
12119;DHT22;6123;48.864;9.200;2022-07-29T02:32:28;18.30;99.90
12119;DHT22;6123;48.864;9.200;2022-07-29T02:34:56;18.40;99.90
12119;DHT22;6123;48.864;9.200;2022-07-29T02:37:22;18.40;99.90
12119;DHT22;6123;48.864;9.200;2022-07-29T02:39:49;18.20;99.90
12119;DHT22;6123;48.864;9.200;2022-07-29T02:42:17;18.30;99.90
12119;DHT22;6123;48.864;9.200;2022-07-29T02:44:46;18.20;99.90
12119;DHT22;6123;48.864;9.200;2022-07-29T02:47:33;18.30;99.90
12119;DHT22;6123;48.864;9.200;2022-07-29T02:52:52;18.30;99.90
12119;DHT22;6123;48.864;9.200;2022-07-29T02:55:30;18.30;99.90
12119;DHT22;6123;48.864;9.200;2022-07-29T02:58:15;18.40;99.90
12119;DHT22;6123;48.864;9.200;2022-07-29T03:00:47;18.20;99.90
12119;DHT22;6123;48.864;9.200;2022-07-29T03:03:22;18.10;99.90
12119;DHT22;6123;48.864;9.200;2022-07-29T03:05:54;18.20;99.90
12119;DHT22;6123;48.864;9.200;2022-07-29T03:08:21;17.90;99.90
12119;DHT22;6123;48.864;9.200;2022-07-29T03:10:48;17.80;99.90
12119;DHT22;6123;48.864;9.200;2022-07-29T03:13:14;17.80;99.90
12119;DHT22;6123;48.864;9.200;2022-07-29T03:15:45;17.90;99.90
12119;DHT22;6123;48.864;9.200;2022-07-29T03:18:12;17.80;99.90
12119;DHT22;6123;48.864;9.200;2022-07-29T03:20:38;17.70;99.90
12119;DHT22;6123;48.864;9.200;2022-07-29T03:23:08;17.80;99.90
12119;DHT22;6123;48.864;9.200;2022-07-29T03:25:34;17.90;99.90
12119;DHT22;6123;48.864;9.200;2022-07-29T03:28:00;18.00;99.90
12119;DHT22;6123;48.864;9.200;2022-07-29T03:30:25;18.00;99.90
12119;DHT22;6123;48.864;9.200;2022-07-29T03:32:51;18.00;99.90
12119;DHT22;6123;48.864;9.200;2022-07-29T03:35:20;18.30;99.90
12119;DHT22;6123;48.864;9.200;2022-07-29T03:37:46;18.10;99.90
12119;DHT22;6123;48.864;9.200;2022-07-29T03:40:17;18.10;99.90
12119;DHT22;6123;48.864;9.200;2022-07-29T03:42:43;18.00;99.90
12119;DHT22;6123;48.864;9.200;2022-07-29T03:45:13;18.00;99.90
12119;DHT22;6123;48.864;9.200;2022-07-29T03:47:50;18.00;99.90
12119;DHT22;6123;48.864;9.200;2022-07-29T03:50:17;18.10;99.90
12119;DHT22;6123;48.864;9.200;2022-07-29T03:52:45;18.40;99.90
12119;DHT22;6123;48.864;9.200;2022-07-29T03:55:12;18.40;99.90
12119;DHT22;6123;48.864;9.200;2022-07-29T03:57:38;19.40;99.90
12119;DHT22;6123;48.864;9.200;2022-07-29T04:00:05;18.40;99.90
12119;DHT22;6123;48.864;9.200;2022-07-29T04:02:32;18.30;99.90
12119;DHT22;6123;48.864;9.200;2022-07-29T04:05:00;18.30;99.90
12119;DHT22;6123;48.864;9.200;2022-07-29T04:07:26;18.20;99.90
12119;DHT22;6123;48.864;9.200;2022-07-29T04:09:52;18.20;99.90
12119;DHT22;6123;48.864;9.200;2022-07-29T04:12:19;18.20;99.90
12119;DHT22;6123;48.864;9.200;2022-07-29T04:14:46;18.10;99.90
12119;DHT22;6123;48.864;9.200;2022-07-29T04:17:12;18.00;99.90
12119;DHT22;6123;48.864;9.200;2022-07-29T04:19:37;17.90;99.90
12119;DHT22;6123;48.864;9.200;2022-07-29T04:22:05;17.90;99.90
12119;DHT22;6123;48.864;9.200;2022-07-29T04:24:31;17.80;99.90
12119;DHT22;6123;48.864;9.200;2022-07-29T04:26:56;17.70;99.90
12119;DHT22;6123;48.864;9.200;2022-07-29T04:29:22;17.70;99.90
12119;DHT22;6123;48.864;9.200;2022-07-29T04:31:48;17.80;99.90
12119;DHT22;6123;48.864;9.200;2022-07-29T04:34:16;17.70;99.90
12119;DHT22;6123;48.864;9.200;2022-07-29T04:36:41;17.70;99.90
12119;DHT22;6123;48.864;9.200;2022-07-29T04:39:09;17.80;99.90
12119;DHT22;6123;48.864;9.200;2022-07-29T04:41:35;17.80;99.90
12119;DHT22;6123;48.864;9.200;2022-07-29T04:44:02;17.70;99.90
12119;DHT22;6123;48.864;9.200;2022-07-29T04:46:30;17.70;99.90
12119;DHT22;6123;48.864;9.200;2022-07-29T04:48:56;17.70;99.90
12119;DHT22;6123;48.864;9.200;2022-07-29T04:51:22;17.90;99.90
12119;DHT22;6123;48.864;9.200;2022-07-29T04:53:47;18.10;99.90
12119;DHT22;6123;48.864;9.200;2022-07-29T04:56:13;18.30;99.90
12119;DHT22;6123;48.864;9.200;2022-07-29T04:58:39;18.30;99.90
12119;DHT22;6123;48.864;9.200;2022-07-29T05:01:06;18.40;99.90
12119;DHT22;6123;48.864;9.200;2022-07-29T05:03:32;18.50;99.90
12119;DHT22;6123;48.864;9.200;2022-07-29T05:05:58;18.50;99.90
12119;DHT22;6123;48.864;9.200;2022-07-29T05:08:23;18.60;99.90
12119;DHT22;6123;48.864;9.200;2022-07-29T05:10:49;18.60;99.90
12119;DHT22;6123;48.864;9.200;2022-07-29T05:13:14;18.50;99.90
12119;DHT22;6123;48.864;9.200;2022-07-29T05:15:41;18.60;99.90
12119;DHT22;6123;48.864;9.200;2022-07-29T05:18:07;18.50;99.90
12119;DHT22;6123;48.864;9.200;2022-07-29T05:20:32;18.40;99.90
12119;DHT22;6123;48.864;9.200;2022-07-29T05:23:02;18.50;99.90
12119;DHT22;6123;48.864;9.200;2022-07-29T05:25:29;18.70;99.90
12119;DHT22;6123;48.864;9.200;2022-07-29T05:27:55;18.90;99.90
12119;DHT22;6123;48.864;9.200;2022-07-29T05:30:21;19.00;99.90
12119;DHT22;6123;48.864;9.200;2022-07-29T05:32:47;19.10;99.90
12119;DHT22;6123;48.864;9.200;2022-07-29T05:35:16;19.10;99.90
12119;DHT22;6123;48.864;9.200;2022-07-29T05:37:42;19.20;99.90
12119;DHT22;6123;48.864;9.200;2022-07-29T05:40:08;19.30;99.90
12119;DHT22;6123;48.864;9.200;2022-07-29T05:42:34;19.40;99.90
12119;DHT22;6123;48.864;9.200;2022-07-29T05:45:03;19.60;99.90
12119;DHT22;6123;48.864;9.200;2022-07-29T05:47:28;19.60;99.90
12119;DHT22;6123;48.864;9.200;2022-07-29T05:49:56;19.70;99.90
12119;DHT22;6123;48.864;9.200;2022-07-29T05:52:24;19.90;99.90
12119;DHT22;6123;48.864;9.200;2022-07-29T05:54:50;19.80;99.90
12119;DHT22;6123;48.864;9.200;2022-07-29T05:57:21;19.90;99.90
12119;DHT22;6123;48.864;9.200;2022-07-29T05:59:47;20.10;99.90
12119;DHT22;6123;48.864;9.200;2022-07-29T06:02:16;20.10;99.90
12119;DHT22;6123;48.864;9.200;2022-07-29T06:04:42;20.10;99.90
12119;DHT22;6123;48.864;9.200;2022-07-29T06:07:08;20.00;99.90
12119;DHT22;6123;48.864;9.200;2022-07-29T06:09:34;20.00;99.90
12119;DHT22;6123;48.864;9.200;2022-07-29T06:12:00;20.30;99.90
12119;DHT22;6123;48.864;9.200;2022-07-29T06:14:26;20.50;99.90
12119;DHT22;6123;48.864;9.200;2022-07-29T06:16:52;20.70;99.90
12119;DHT22;6123;48.864;9.200;2022-07-29T06:19:18;20.80;99.90
12119;DHT22;6123;48.864;9.200;2022-07-29T06:21:45;20.90;99.90
12119;DHT22;6123;48.864;9.200;2022-07-29T06:24:11;21.10;99.90
12119;DHT22;6123;48.864;9.200;2022-07-29T06:26:38;21.30;99.90
12119;DHT22;6123;48.864;9.200;2022-07-29T06:29:06;21.50;99.90
12119;DHT22;6123;48.864;9.200;2022-07-29T06:31:32;21.60;99.90
12119;DHT22;6123;48.864;9.200;2022-07-29T06:33:58;21.50;99.90
12119;DHT22;6123;48.864;9.200;2022-07-29T06:36:24;21.60;99.90
12119;DHT22;6123;48.864;9.200;2022-07-29T06:38:49;21.70;99.90
12119;DHT22;6123;48.864;9.200;2022-07-29T06:41:15;21.90;99.90
12119;DHT22;6123;48.864;9.200;2022-07-29T06:43:43;22.00;99.90
12119;DHT22;6123;48.864;9.200;2022-07-29T06:46:14;22.50;99.90
12119;DHT22;6123;48.864;9.200;2022-07-29T06:48:40;22.10;99.90
12119;DHT22;6123;48.864;9.200;2022-07-29T06:51:08;22.10;99.90
12119;DHT22;6123;48.864;9.200;2022-07-29T06:53:34;22.10;99.90
12119;DHT22;6123;48.864;9.200;2022-07-29T06:56:04;22.20;99.90
12119;DHT22;6123;48.864;9.200;2022-07-29T06:58:30;22.30;99.90
12119;DHT22;6123;48.864;9.200;2022-07-29T07:01:00;22.50;99.90
12119;DHT22;6123;48.864;9.200;2022-07-29T07:03:26;22.40;99.90
12119;DHT22;6123;48.864;9.200;2022-07-29T07:05:53;22.60;99.90
12119;DHT22;6123;48.864;9.200;2022-07-29T07:08:19;22.70;99.90
12119;DHT22;6123;48.864;9.200;2022-07-29T07:10:45;22.80;99.90
12119;DHT22;6123;48.864;9.200;2022-07-29T07:13:11;23.10;99.90
12119;DHT22;6123;48.864;9.200;2022-07-29T07:15:37;23.20;99.90
12119;DHT22;6123;48.864;9.200;2022-07-29T07:18:04;23.30;99.90
12119;DHT22;6123;48.864;9.200;2022-07-29T07:20:29;23.30;99.90
12119;DHT22;6123;48.864;9.200;2022-07-29T07:22:55;23.30;99.90
12119;DHT22;6123;48.864;9.200;2022-07-29T07:25:21;23.50;99.90
12119;DHT22;6123;48.864;9.200;2022-07-29T07:27:47;23.50;99.90
12119;DHT22;6123;48.864;9.200;2022-07-29T07:30:13;23.70;99.90
12119;DHT22;6123;48.864;9.200;2022-07-29T07:32:39;23.50;99.90
12119;DHT22;6123;48.864;9.200;2022-07-29T07:35:08;23.40;99.90
12119;DHT22;6123;48.864;9.200;2022-07-29T07:37:34;23.40;99.90
12119;DHT22;6123;48.864;9.200;2022-07-29T07:40:00;23.30;99.90
12119;DHT22;6123;48.864;9.200;2022-07-29T07:42:26;23.20;99.90
12119;DHT22;6123;48.864;9.200;2022-07-29T07:44:54;23.40;99.90
12119;DHT22;6123;48.864;9.200;2022-07-29T07:47:20;23.70;99.90
12119;DHT22;6123;48.864;9.200;2022-07-29T07:49:50;23.90;99.90
12119;DHT22;6123;48.864;9.200;2022-07-29T07:52:17;24.20;99.90
12119;DHT22;6123;48.864;9.200;2022-07-29T07:54:43;24.30;99.90
12119;DHT22;6123;48.864;9.200;2022-07-29T07:57:12;24.20;99.90
12119;DHT22;6123;48.864;9.200;2022-07-29T07:59:38;24.30;99.90
12119;DHT22;6123;48.864;9.200;2022-07-29T08:02:04;24.40;99.90
12119;DHT22;6123;48.864;9.200;2022-07-29T08:04:33;24.40;99.90
12119;DHT22;6123;48.864;9.200;2022-07-29T08:06:59;24.60;99.90
12119;DHT22;6123;48.864;9.200;2022-07-29T08:09:26;24.70;99.90
12119;DHT22;6123;48.864;9.200;2022-07-29T08:11:52;24.70;99.90
12119;DHT22;6123;48.864;9.200;2022-07-29T08:14:21;24.80;99.90
12119;DHT22;6123;48.864;9.200;2022-07-29T08:16:47;24.60;99.90
12119;DHT22;6123;48.864;9.200;2022-07-29T08:19:13;24.80;99.90
12119;DHT22;6123;48.864;9.200;2022-07-29T08:21:38;24.90;99.90
12119;DHT22;6123;48.864;9.200;2022-07-29T08:24:04;24.80;99.90
12119;DHT22;6123;48.864;9.200;2022-07-29T08:26:49;24.70;99.90
12119;DHT22;6123;48.864;9.200;2022-07-29T08:29:16;24.80;99.90
12119;DHT22;6123;48.864;9.200;2022-07-29T08:31:44;24.80;99.90
12119;DHT22;6123;48.864;9.200;2022-07-29T08:34:13;25.00;99.90
12119;DHT22;6123;48.864;9.200;2022-07-29T08:36:39;25.20;99.90
12119;DHT22;6123;48.864;9.200;2022-07-29T08:39:04;25.30;99.90
12119;DHT22;6123;48.864;9.200;2022-07-29T08:41:31;25.30;99.90
12119;DHT22;6123;48.864;9.200;2022-07-29T08:43:57;25.20;99.90
12119;DHT22;6123;48.864;9.200;2022-07-29T08:46:23;25.30;99.90
12119;DHT22;6123;48.864;9.200;2022-07-29T08:48:51;25.40;99.90
12119;DHT22;6123;48.864;9.200;2022-07-29T08:51:20;25.50;99.90
12119;DHT22;6123;48.864;9.200;2022-07-29T08:53:47;25.60;99.90
12119;DHT22;6123;48.864;9.200;2022-07-29T08:56:15;25.60;99.90
12119;DHT22;6123;48.864;9.200;2022-07-29T08:58:47;25.50;99.90
12119;DHT22;6123;48.864;9.200;2022-07-29T09:01:17;25.50;99.90
12119;DHT22;6123;48.864;9.200;2022-07-29T09:03:46;25.40;99.90
12119;DHT22;6123;48.864;9.200;2022-07-29T09:06:17;25.40;99.90
12119;DHT22;6123;48.864;9.200;2022-07-29T09:08:45;25.60;99.90
12119;DHT22;6123;48.864;9.200;2022-07-29T09:11:12;25.70;99.90
12119;DHT22;6123;48.864;9.200;2022-07-29T09:13:39;25.60;99.90
12119;DHT22;6123;48.864;9.200;2022-07-29T09:16:05;25.40;99.90
12119;DHT22;6123;48.864;9.200;2022-07-29T09:18:36;25.30;99.90
12119;DHT22;6123;48.864;9.200;2022-07-29T09:21:06;25.50;99.90
12119;DHT22;6123;48.864;9.200;2022-07-29T09:24:09;25.30;99.90
12119;DHT22;6123;48.864;9.200;2022-07-29T09:26:45;25.40;99.90
12119;DHT22;6123;48.864;9.200;2022-07-29T09:29:17;25.50;99.90
12119;DHT22;6123;48.864;9.200;2022-07-29T09:31:46;25.40;99.90
12119;DHT22;6123;48.864;9.200;2022-07-29T09:34:14;25.80;99.90
12119;DHT22;6123;48.864;9.200;2022-07-29T09:36:44;26.00;99.90
12119;DHT22;6123;48.864;9.200;2022-07-29T09:39:10;26.10;99.90
12119;DHT22;6123;48.864;9.200;2022-07-29T09:41:50;26.20;99.90
12119;DHT22;6123;48.864;9.200;2022-07-29T09:44:18;26.00;99.90
12119;DHT22;6123;48.864;9.200;2022-07-29T09:49:22;25.90;99.90
12119;DHT22;6123;48.864;9.200;2022-07-29T09:51:59;26.30;99.90
12119;DHT22;6123;48.864;9.200;2022-07-29T09:54:26;26.60;99.90
12119;DHT22;6123;48.864;9.200;2022-07-29T09:56:52;26.50;99.90
12119;DHT22;6123;48.864;9.200;2022-07-29T09:59:21;26.20;99.90
12119;DHT22;6123;48.864;9.200;2022-07-29T10:01:49;26.30;99.90
12119;DHT22;6123;48.864;9.200;2022-07-29T10:04:18;26.50;99.90
12119;DHT22;6123;48.864;9.200;2022-07-29T10:09:23;26.90;99.90
12119;DHT22;6123;48.864;9.200;2022-07-29T10:12:11;27.10;99.90
12119;DHT22;6123;48.864;9.200;2022-07-29T10:14:40;26.60;99.90
12119;DHT22;6123;48.864;9.200;2022-07-29T10:17:07;26.10;99.90
12119;DHT22;6123;48.864;9.200;2022-07-29T10:19:37;25.70;99.90
12119;DHT22;6123;48.864;9.200;2022-07-29T10:22:08;25.80;99.90
12119;DHT22;6123;48.864;9.200;2022-07-29T10:24:37;25.90;99.90
12119;DHT22;6123;48.864;9.200;2022-07-29T10:27:07;25.60;99.90
12119;DHT22;6123;48.864;9.200;2022-07-29T10:29:33;25.60;99.90
12119;DHT22;6123;48.864;9.200;2022-07-29T10:43:29;25.20;99.90
12119;DHT22;6123;48.864;9.200;2022-07-29T10:46:00;25.20;99.90
12119;DHT22;6123;48.864;9.200;2022-07-29T10:48:26;25.50;99.90
12119;DHT22;6123;48.864;9.200;2022-07-29T10:51:02;25.30;99.90
12119;DHT22;6123;48.864;9.200;2022-07-29T10:53:48;25.30;99.90
12119;DHT22;6123;48.864;9.200;2022-07-29T10:56:29;25.40;99.90
12119;DHT22;6123;48.864;9.200;2022-07-29T11:01:47;25.10;99.90
12119;DHT22;6123;48.864;9.200;2022-07-29T11:04:16;25.00;99.90
12119;DHT22;6123;48.864;9.200;2022-07-29T11:07:07;25.00;99.90
12119;DHT22;6123;48.864;9.200;2022-07-29T11:09:33;24.90;99.90
12119;DHT22;6123;48.864;9.200;2022-07-29T11:11:59;25.00;99.90
12119;DHT22;6123;48.864;9.200;2022-07-29T11:17:19;25.10;99.90
12119;DHT22;6123;48.864;9.200;2022-07-29T11:19:47;24.90;99.90
12119;DHT22;6123;48.864;9.200;2022-07-29T11:22:35;24.90;99.90
12119;DHT22;6123;48.864;9.200;2022-07-29T11:25:14;24.90;99.90
12119;DHT22;6123;48.864;9.200;2022-07-29T11:27:41;25.10;99.90
12119;DHT22;6123;48.864;9.200;2022-07-29T11:30:08;25.10;99.90
12119;DHT22;6123;48.864;9.200;2022-07-29T11:32:39;25.10;99.90
12119;DHT22;6123;48.864;9.200;2022-07-29T11:35:23;25.00;99.90
12119;DHT22;6123;48.864;9.200;2022-07-29T11:41:26;24.90;99.90
12119;DHT22;6123;48.864;9.200;2022-07-29T11:43:53;25.00;99.90
12119;DHT22;6123;48.864;9.200;2022-07-29T11:46:49;24.80;99.90
12119;DHT22;6123;48.864;9.200;2022-07-29T11:49:20;24.60;99.90
12119;DHT22;6123;48.864;9.200;2022-07-29T11:51:54;24.60;99.90
12119;DHT22;6123;48.864;9.200;2022-07-29T11:54:31;24.80;99.90
12119;DHT22;6123;48.864;9.200;2022-07-29T11:56:58;24.30;99.90
12119;DHT22;6123;48.864;9.200;2022-07-29T11:59:24;24.10;99.90
12119;DHT22;6123;48.864;9.200;2022-07-29T12:01:58;23.80;99.90
12119;DHT22;6123;48.864;9.200;2022-07-29T12:04:26;23.70;99.90
12119;DHT22;6123;48.864;9.200;2022-07-29T12:06:54;23.70;99.90
12119;DHT22;6123;48.864;9.200;2022-07-29T12:09:20;23.70;99.90
12119;DHT22;6123;48.864;9.200;2022-07-29T12:11:47;23.80;99.90
12119;DHT22;6123;48.864;9.200;2022-07-29T12:14:29;23.80;99.90
12119;DHT22;6123;48.864;9.200;2022-07-29T12:16:55;24.00;99.90
12119;DHT22;6123;48.864;9.200;2022-07-29T12:19:21;24.10;99.90
12119;DHT22;6123;48.864;9.200;2022-07-29T12:21:48;24.30;99.90
12119;DHT22;6123;48.864;9.200;2022-07-29T12:24:15;24.50;99.90
12119;DHT22;6123;48.864;9.200;2022-07-29T12:26:51;24.60;99.90
12119;DHT22;6123;48.864;9.200;2022-07-29T12:29:17;24.50;99.90
12119;DHT22;6123;48.864;9.200;2022-07-29T12:31:43;24.30;99.90
12119;DHT22;6123;48.864;9.200;2022-07-29T12:34:11;23.30;99.90
12119;DHT22;6123;48.864;9.200;2022-07-29T12:36:37;23.60;99.90
12119;DHT22;6123;48.864;9.200;2022-07-29T12:39:05;23.30;99.90
12119;DHT22;6123;48.864;9.200;2022-07-29T12:41:31;23.30;99.90
12119;DHT22;6123;48.864;9.200;2022-07-29T12:43:57;23.40;99.90
12119;DHT22;6123;48.864;9.200;2022-07-29T12:46:23;23.40;99.90
12119;DHT22;6123;48.864;9.200;2022-07-29T12:48:53;23.30;99.90
12119;DHT22;6123;48.864;9.200;2022-07-29T12:51:34;23.30;99.90
12119;DHT22;6123;48.864;9.200;2022-07-29T12:56:33;23.20;99.90
12119;DHT22;6123;48.864;9.200;2022-07-29T12:58:58;23.30;99.90
12119;DHT22;6123;48.864;9.200;2022-07-29T13:01:24;23.20;99.90
12119;DHT22;6123;48.864;9.200;2022-07-29T13:03:56;23.20;99.90
12119;DHT22;6123;48.864;9.200;2022-07-29T13:06:31;23.20;99.90
12119;DHT22;6123;48.864;9.200;2022-07-29T13:09:36;23.10;99.90
12119;DHT22;6123;48.864;9.200;2022-07-29T13:12:06;23.10;99.90
12119;DHT22;6123;48.864;9.200;2022-07-29T13:14:40;23.10;99.90
12119;DHT22;6123;48.864;9.200;2022-07-29T13:17:13;23.00;99.90
12119;DHT22;6123;48.864;9.200;2022-07-29T13:19:46;23.00;99.90
12119;DHT22;6123;48.864;9.200;2022-07-29T13:22:20;23.00;99.90
12119;DHT22;6123;48.864;9.200;2022-07-29T13:27:21;23.20;99.90
12119;DHT22;6123;48.864;9.200;2022-07-29T13:29:47;23.20;99.90
12119;DHT22;6123;48.864;9.200;2022-07-29T13:32:14;23.20;99.90
12119;DHT22;6123;48.864;9.200;2022-07-29T13:34:40;23.10;99.90
12119;DHT22;6123;48.864;9.200;2022-07-29T13:37:06;23.00;99.90
12119;DHT22;6123;48.864;9.200;2022-07-29T13:39:34;23.10;99.90
12119;DHT22;6123;48.864;9.200;2022-07-29T13:42:00;23.00;99.90
12119;DHT22;6123;48.864;9.200;2022-07-29T13:44:26;23.00;99.90
12119;DHT22;6123;48.864;9.200;2022-07-29T13:46:51;23.00;99.90
12119;DHT22;6123;48.864;9.200;2022-07-29T13:49:17;22.80;99.90
12119;DHT22;6123;48.864;9.200;2022-07-29T13:51:43;22.80;99.90
12119;DHT22;6123;48.864;9.200;2022-07-29T13:54:08;22.90;99.90
12119;DHT22;6123;48.864;9.200;2022-07-29T13:56:34;23.30;99.90
12119;DHT22;6123;48.864;9.200;2022-07-29T13:59:00;23.40;99.90
12119;DHT22;6123;48.864;9.200;2022-07-29T14:01:28;23.40;99.90
12119;DHT22;6123;48.864;9.200;2022-07-29T14:03:55;23.40;99.90
12119;DHT22;6123;48.864;9.200;2022-07-29T14:06:21;23.40;99.90
12119;DHT22;6123;48.864;9.200;2022-07-29T14:08:46;23.50;99.90
12119;DHT22;6123;48.864;9.200;2022-07-29T14:11:12;23.70;99.90
12119;DHT22;6123;48.864;9.200;2022-07-29T14:13:38;23.90;99.90
12119;DHT22;6123;48.864;9.200;2022-07-29T14:16:08;23.90;99.90
12119;DHT22;6123;48.864;9.200;2022-07-29T14:18:34;23.90;99.90
12119;DHT22;6123;48.864;9.200;2022-07-29T14:20:59;24.10;99.90
12119;DHT22;6123;48.864;9.200;2022-07-29T14:23:25;24.10;99.90
12119;DHT22;6123;48.864;9.200;2022-07-29T14:25:51;24.20;99.90
12119;DHT22;6123;48.864;9.200;2022-07-29T14:28:17;24.40;99.90
12119;DHT22;6123;48.864;9.200;2022-07-29T14:30:43;24.30;99.90
12119;DHT22;6123;48.864;9.200;2022-07-29T14:33:08;24.30;99.90
12119;DHT22;6123;48.864;9.200;2022-07-29T14:35:34;24.40;99.90
12119;DHT22;6123;48.864;9.200;2022-07-29T14:38:00;24.50;99.90
12119;DHT22;6123;48.864;9.200;2022-07-29T14:40:26;24.50;99.90
12119;DHT22;6123;48.864;9.200;2022-07-29T14:42:52;24.50;99.90
12119;DHT22;6123;48.864;9.200;2022-07-29T14:45:17;24.60;99.90
12119;DHT22;6123;48.864;9.200;2022-07-29T14:47:43;24.50;99.90
12119;DHT22;6123;48.864;9.200;2022-07-29T14:50:09;24.50;99.90
12119;DHT22;6123;48.864;9.200;2022-07-29T14:52:35;24.50;99.90
12119;DHT22;6123;48.864;9.200;2022-07-29T14:55:02;24.70;99.90
12119;DHT22;6123;48.864;9.200;2022-07-29T14:57:28;25.00;99.90
12119;DHT22;6123;48.864;9.200;2022-07-29T14:59:54;24.80;99.90
12119;DHT22;6123;48.864;9.200;2022-07-29T15:02:19;25.10;99.90
12119;DHT22;6123;48.864;9.200;2022-07-29T15:04:45;25.30;99.90
12119;DHT22;6123;48.864;9.200;2022-07-29T15:07:14;25.30;99.90
12119;DHT22;6123;48.864;9.200;2022-07-29T15:09:42;25.10;99.90
12119;DHT22;6123;48.864;9.200;2022-07-29T15:12:10;25.30;99.90
12119;DHT22;6123;48.864;9.200;2022-07-29T15:14:36;25.40;99.90
12119;DHT22;6123;48.864;9.200;2022-07-29T15:17:02;25.30;99.90
12119;DHT22;6123;48.864;9.200;2022-07-29T15:19:27;25.20;99.90
12119;DHT22;6123;48.864;9.200;2022-07-29T15:21:53;25.20;99.90
12119;DHT22;6123;48.864;9.200;2022-07-29T15:24:19;25.10;99.90
12119;DHT22;6123;48.864;9.200;2022-07-29T15:26:46;25.10;99.90
12119;DHT22;6123;48.864;9.200;2022-07-29T15:29:12;25.10;99.90
12119;DHT22;6123;48.864;9.200;2022-07-29T15:31:38;25.00;99.90
12119;DHT22;6123;48.864;9.200;2022-07-29T15:34:04;24.90;99.90
12119;DHT22;6123;48.864;9.200;2022-07-29T15:36:30;24.80;99.90
12119;DHT22;6123;48.864;9.200;2022-07-29T15:38:56;25.00;99.90
12119;DHT22;6123;48.864;9.200;2022-07-29T15:41:24;24.90;99.90
12119;DHT22;6123;48.864;9.200;2022-07-29T15:43:49;24.80;99.90
12119;DHT22;6123;48.864;9.200;2022-07-29T15:46:17;24.80;99.90
12119;DHT22;6123;48.864;9.200;2022-07-29T15:49:07;24.80;99.90
12119;DHT22;6123;48.864;9.200;2022-07-29T15:51:32;24.80;99.90
12119;DHT22;6123;48.864;9.200;2022-07-29T15:54:00;24.80;99.90
12119;DHT22;6123;48.864;9.200;2022-07-29T15:56:26;24.70;99.90
12119;DHT22;6123;48.864;9.200;2022-07-29T15:58:52;24.50;99.90
12119;DHT22;6123;48.864;9.200;2022-07-29T16:01:17;24.50;99.90
12119;DHT22;6123;48.864;9.200;2022-07-29T16:03:43;24.70;99.90
12119;DHT22;6123;48.864;9.200;2022-07-29T16:06:11;24.70;99.90
12119;DHT22;6123;48.864;9.200;2022-07-29T16:08:37;24.80;99.90
12119;DHT22;6123;48.864;9.200;2022-07-29T16:11:03;24.80;99.90
12119;DHT22;6123;48.864;9.200;2022-07-29T16:13:28;24.90;99.90
12119;DHT22;6123;48.864;9.200;2022-07-29T16:15:56;25.10;99.90
12119;DHT22;6123;48.864;9.200;2022-07-29T16:18:21;25.00;99.90
12119;DHT22;6123;48.864;9.200;2022-07-29T16:20:47;25.20;99.90
12119;DHT22;6123;48.864;9.200;2022-07-29T16:23:13;25.40;99.90
12119;DHT22;6123;48.864;9.200;2022-07-29T16:25:40;25.60;99.90
12119;DHT22;6123;48.864;9.200;2022-07-29T16:28:06;25.50;99.90
12119;DHT22;6123;48.864;9.200;2022-07-29T16:30:33;25.40;99.90
12119;DHT22;6123;48.864;9.200;2022-07-29T16:32:59;25.40;99.90
12119;DHT22;6123;48.864;9.200;2022-07-29T16:35:27;25.40;99.90
12119;DHT22;6123;48.864;9.200;2022-07-29T16:37:55;25.40;99.90